createdAt,value
2018-05-31T00:00:30.288Z,1030.27
2018-05-31T00:01:30.291Z,1030.29
2018-05-31T00:02:30.287Z,1030.3
2018-05-31T00:03:30.285Z,1030.29
2018-05-31T00:04:30.275Z,1030.28
2018-05-31T00:05:30.276Z,1030.28
2018-05-31T00:06:30.268Z,1030.32
2018-05-31T00:07:30.278Z,1030.3
2018-05-31T00:08:30.270Z,1030.29
2018-05-31T00:09:30.271Z,1030.23
2018-05-31T00:10:30.255Z,1030.23
2018-05-31T00:11:30.257Z,1030.24
2018-05-31T00:12:30.253Z,1030.23
2018-05-31T00:13:30.246Z,1030.21
2018-05-31T00:14:30.242Z,1030.21
2018-05-31T00:15:30.250Z,1030.21
2018-05-31T00:16:30.255Z,1030.2
2018-05-31T00:17:30.233Z,1030.21
2018-05-31T00:18:30.231Z,1030.2
2018-05-31T00:19:30.476Z,1030.18
2018-05-31T00:20:30.227Z,1030.17
2018-05-31T00:21:30.219Z,1030.18
2018-05-31T00:22:30.219Z,1030.16
2018-05-31T00:23:30.217Z,1030.18
2018-05-31T00:24:30.209Z,1030.19
2018-05-31T00:25:30.211Z,1030.17
2018-05-31T00:26:30.206Z,1030.18
2018-05-31T00:27:30.204Z,1030.12
2018-05-31T00:28:30.197Z,1030.13
2018-05-31T00:29:30.193Z,1030.14
2018-05-31T00:30:30.189Z,1030.11
2018-05-31T00:31:30.193Z,1030.09
2018-05-31T00:32:30.194Z,1030.08
2018-05-31T00:33:30.183Z,1030.05
2018-05-31T00:34:30.177Z,1030.05
2018-05-31T00:35:30.172Z,1030.07
2018-05-31T00:36:30.174Z,1030.01
2018-05-31T00:37:30.166Z,1029.97
2018-05-31T00:38:30.166Z,1029.96
2018-05-31T00:39:30.158Z,1029.98
2018-05-31T00:40:30.163Z,1029.99
2018-05-31T00:41:30.154Z,1030
2018-05-31T00:42:30.156Z,1029.98
2018-05-31T00:43:30.148Z,1029.97
2018-05-31T00:44:30.147Z,1029.99
2018-05-31T00:45:30.144Z,1029.97
2018-05-31T00:46:30.141Z,1029.95
2018-05-31T00:47:30.133Z,1029.95
2018-05-31T00:48:30.135Z,1029.99
2018-05-31T00:49:30.125Z,1029.97
2018-05-31T00:50:30.129Z,1029.97
2018-05-31T00:51:30.126Z,1029.93
2018-05-31T00:52:30.149Z,1029.92
2018-05-31T00:53:30.112Z,1029.92
2018-05-31T00:54:30.117Z,1029.93
2018-05-31T00:55:30.106Z,1029.89
2018-05-31T00:56:30.105Z,1029.89
2018-05-31T00:57:30.101Z,1029.9
2018-05-31T00:58:30.105Z,1029.9
2018-05-31T00:59:30.092Z,1029.9
2018-05-31T01:00:30.093Z,1029.92
2018-05-31T01:01:30.091Z,1029.92
2018-05-31T01:02:30.087Z,1029.9
2018-05-31T01:03:30.078Z,1029.88
2018-05-31T01:04:30.074Z,1029.86
2018-05-31T01:05:30.076Z,1029.84
2018-05-31T01:06:30.074Z,1029.87
2018-05-31T01:07:30.069Z,1029.87
2018-05-31T01:08:30.061Z,1029.84
2018-05-31T01:09:30.062Z,1029.82
2018-05-31T01:10:30.057Z,1029.79
2018-05-31T01:11:30.054Z,1029.78
2018-05-31T01:12:30.048Z,1029.76
2018-05-31T01:13:30.049Z,1029.76
2018-05-31T01:14:30.045Z,1029.78
2018-05-31T01:15:30.038Z,1029.73
2018-05-31T01:16:30.038Z,1029.72
2018-05-31T01:17:30.035Z,1029.72
2018-05-31T01:18:30.032Z,1029.72
2018-05-31T01:19:30.023Z,1029.72
2018-05-31T01:20:30.018Z,1029.74
2018-05-31T01:21:30.271Z,1029.76
2018-05-31T01:22:30.017Z,1029.77
2018-05-31T01:23:30.014Z,1029.75
2018-05-31T01:24:30.006Z,1029.77
2018-05-31T01:25:30.007Z,1029.77
2018-05-31T01:26:30.005Z,1029.75
2018-05-31T01:27:29.994Z,1029.73
2018-05-31T01:28:29.996Z,1029.77
2018-05-31T01:29:29.996Z,1029.78
2018-05-31T01:30:29.989Z,1029.78
2018-05-31T01:31:29.980Z,1029.75
2018-05-31T01:32:29.981Z,1029.77
2018-05-31T01:33:29.978Z,1029.79
2018-05-31T01:34:29.979Z,1029.8
2018-05-31T01:35:29.965Z,1029.8
2018-05-31T01:36:29.962Z,1029.76
2018-05-31T01:37:29.967Z,1029.78
2018-05-31T01:38:29.960Z,1029.74
2018-05-31T01:39:29.951Z,1029.77
2018-05-31T01:40:29.952Z,1029.74
2018-05-31T01:41:29.944Z,1029.79
2018-05-31T01:42:29.945Z,1029.79
2018-05-31T01:43:29.937Z,1029.75
2018-05-31T01:44:29.938Z,1029.75
2018-05-31T01:45:29.931Z,1029.67
2018-05-31T01:46:29.932Z,1029.7
2018-05-31T01:47:29.922Z,1029.65
2018-05-31T01:48:29.923Z,1029.68
2018-05-31T01:49:29.922Z,1029.64
2018-05-31T01:50:29.917Z,1029.64
2018-05-31T01:51:29.907Z,1029.63
2018-05-31T01:52:30.156Z,1029.63
2018-05-31T01:53:29.906Z,1029.68
2018-05-31T01:54:29.902Z,1029.65
2018-05-31T01:55:29.897Z,1029.64
2018-05-31T01:56:29.889Z,1029.65
2018-05-31T01:57:29.892Z,1029.64
2018-05-31T01:58:29.882Z,1029.63
2018-05-31T01:59:29.883Z,1029.61
2018-05-31T02:00:29.878Z,1029.62
2018-05-31T02:01:29.876Z,1029.61
2018-05-31T02:02:29.867Z,1029.57
2018-05-31T02:03:29.870Z,1029.58
2018-05-31T02:04:29.860Z,1029.6
2018-05-31T02:05:29.862Z,1029.59
2018-05-31T02:06:29.860Z,1029.57
2018-05-31T02:07:29.849Z,1029.6
2018-05-31T02:08:29.845Z,1029.57
2018-05-31T02:09:29.847Z,1029.57
2018-05-31T02:10:29.842Z,1029.6
2018-05-31T02:11:29.839Z,1029.6
2018-05-31T02:12:29.835Z,1029.59
2018-05-31T02:13:29.837Z,1029.61
2018-05-31T02:14:29.823Z,1029.61
2018-05-31T02:15:29.825Z,1029.65
2018-05-31T02:16:29.815Z,1029.64
2018-05-31T02:17:29.830Z,1029.65
2018-05-31T02:18:29.808Z,1029.65
2018-05-31T02:19:29.809Z,1029.66
2018-05-31T02:20:29.802Z,1029.61
2018-05-31T02:21:29.798Z,1029.64
2018-05-31T02:22:29.795Z,1029.6
2018-05-31T02:23:30.049Z,1029.6
2018-05-31T02:24:29.791Z,1029.61
2018-05-31T02:25:29.784Z,1029.61
2018-05-31T02:26:29.780Z,1029.62
2018-05-31T02:27:29.776Z,1029.64
2018-05-31T02:28:29.776Z,1029.64
2018-05-31T02:29:29.768Z,1029.67
2018-05-31T02:30:29.766Z,1029.69
2018-05-31T02:31:29.765Z,1029.71
2018-05-31T02:32:29.757Z,1029.7
2018-05-31T02:33:29.759Z,1029.69
2018-05-31T02:34:29.753Z,1029.71
2018-05-31T02:35:29.750Z,1029.74
2018-05-31T02:36:29.742Z,1029.78
2018-05-31T02:37:29.738Z,1029.77
2018-05-31T02:38:29.735Z,1029.78
2018-05-31T02:39:29.743Z,1029.78
2018-05-31T02:40:29.737Z,1029.79
2018-05-31T02:41:29.728Z,1029.85
2018-05-31T02:42:29.718Z,1029.81
2018-05-31T02:43:29.714Z,1029.8
2018-05-31T02:44:29.717Z,1029.8
2018-05-31T02:45:29.707Z,1029.85
2018-05-31T02:46:29.709Z,1029.81
2018-05-31T02:47:29.699Z,1029.81
2018-05-31T02:48:29.701Z,1029.81
2018-05-31T02:49:29.703Z,1029.85
2018-05-31T02:50:29.693Z,1029.85
2018-05-31T02:51:29.684Z,1029.81
2018-05-31T02:52:29.686Z,1029.82
2018-05-31T02:53:29.685Z,1029.8
2018-05-31T02:54:29.929Z,1029.82
2018-05-31T02:55:29.670Z,1029.79
2018-05-31T02:56:29.671Z,1029.82
2018-05-31T02:57:29.661Z,1029.79
2018-05-31T02:58:29.658Z,1029.81
2018-05-31T02:59:29.655Z,1029.81
2018-05-31T03:00:29.657Z,1029.8
2018-05-31T03:01:29.647Z,1029.81
2018-05-31T03:02:29.648Z,1029.82
2018-05-31T03:03:29.640Z,1029.78
2018-05-31T03:04:29.644Z,1029.74
2018-05-31T03:05:29.635Z,1029.76
2018-05-31T03:06:29.634Z,1029.76
2018-05-31T03:07:29.625Z,1029.75
2018-05-31T03:08:29.626Z,1029.74
2018-05-31T03:09:29.616Z,1029.74
2018-05-31T03:10:29.613Z,1029.7
2018-05-31T03:11:29.615Z,1029.66
2018-05-31T03:12:29.610Z,1029.65
2018-05-31T03:13:29.602Z,1029.65
2018-05-31T03:14:29.600Z,1029.61
2018-05-31T03:15:29.593Z,1029.56
2018-05-31T03:16:29.596Z,1029.52
2018-05-31T03:17:29.589Z,1029.52
2018-05-31T03:18:29.589Z,1029.51
2018-05-31T03:19:29.580Z,1029.55
2018-05-31T03:20:29.582Z,1029.5
2018-05-31T03:21:29.573Z,1029.52
2018-05-31T03:22:29.572Z,1029.51
2018-05-31T03:23:29.570Z,1029.46
2018-05-31T03:24:29.567Z,1029.48
2018-05-31T03:25:29.558Z,1029.41
2018-05-31T03:26:29.554Z,1029.41
2018-05-31T03:27:29.560Z,1029.33
2018-05-31T03:28:29.553Z,1029.3
2018-05-31T03:29:29.546Z,1029.26
2018-05-31T03:30:29.545Z,1029.13
2018-05-31T03:31:29.545Z,1029.06
2018-05-31T03:32:29.539Z,1029.01
2018-05-31T03:33:29.537Z,1028.94
2018-05-31T03:34:29.531Z,1028.85
2018-05-31T03:35:29.523Z,1028.8
2018-05-31T03:36:29.525Z,1028.86
2018-05-31T03:37:29.516Z,1028.82
2018-05-31T03:38:29.519Z,1028.8
2018-05-31T03:39:29.520Z,1028.78
2018-05-31T03:40:29.513Z,1028.68
2018-05-31T03:41:29.510Z,1028.62
2018-05-31T03:42:29.506Z,1028.56
2018-05-31T03:43:29.499Z,1028.51
2018-05-31T03:44:29.496Z,1028.44
2018-05-31T03:45:29.497Z,1028.3
2018-05-31T03:46:29.496Z,1028.22
2018-05-31T03:47:29.526Z,1028.06
2018-05-31T03:48:29.490Z,1027.94
2018-05-31T03:49:29.482Z,1027.87
2018-05-31T03:50:29.485Z,1027.81
2018-05-31T03:51:29.486Z,1027.7
2018-05-31T03:52:29.479Z,1027.57
2018-05-31T03:53:29.473Z,1027.51
2018-05-31T03:54:29.483Z,1027.49
2018-05-31T03:55:29.469Z,1027.39
2018-05-31T03:56:29.474Z,1027.34
2018-05-31T03:57:29.475Z,1027.22
2018-05-31T03:58:29.470Z,1027.14
2018-05-31T03:59:29.469Z,1027.02
2018-05-31T04:00:29.461Z,1026.91
2018-05-31T04:01:29.505Z,1026.8
2018-05-31T04:02:29.490Z,1026.71
2018-05-31T04:03:29.464Z,1026.61
2018-05-31T04:04:29.458Z,1026.49
2018-05-31T04:05:29.464Z,1026.39
2018-05-31T04:06:29.457Z,1026.33
2018-05-31T04:07:29.461Z,1026.34
2018-05-31T04:08:29.459Z,1026.4
2018-05-31T04:09:29.464Z,1026.39
2018-05-31T04:10:29.459Z,1026.31
2018-05-31T04:11:29.463Z,1026.29
2018-05-31T04:12:29.459Z,1026.26
2018-05-31T04:13:29.465Z,1026.19
2018-05-31T04:14:29.467Z,1026.21
2018-05-31T04:15:29.463Z,1026.22
2018-05-31T04:16:29.462Z,1026.17
2018-05-31T04:17:29.467Z,1026.12
2018-05-31T04:18:29.469Z,1026.08
2018-05-31T04:19:29.471Z,1026.08
2018-05-31T04:20:29.466Z,1026.02
2018-05-31T04:21:29.473Z,1025.98
2018-05-31T04:22:29.469Z,1025.92
2018-05-31T04:23:29.477Z,1025.82
2018-05-31T04:24:29.475Z,1025.77
2018-05-31T04:25:29.481Z,1025.69
2018-05-31T04:26:29.478Z,1025.59
2018-05-31T04:27:29.485Z,1025.48
2018-05-31T04:28:29.485Z,1025.4
2018-05-31T04:29:29.484Z,1025.26
2018-05-31T04:30:29.488Z,1025.18
2018-05-31T04:31:29.496Z,1025.08
2018-05-31T04:32:29.498Z,1024.95
2018-05-31T04:33:29.497Z,1024.84
2018-05-31T04:34:29.500Z,1024.71
2018-05-31T04:35:29.504Z,1024.68
2018-05-31T04:36:29.513Z,1024.68
2018-05-31T04:37:29.511Z,1024.68
2018-05-31T04:38:29.516Z,1024.68
2018-05-31T04:39:29.525Z,1024.58
2018-05-31T04:40:29.525Z,1024.53
2018-05-31T04:41:29.535Z,1024.45
2018-05-31T05:09:29.916Z,1022.8
2018-05-31T05:16:42.443Z,1022.64
2018-05-31T05:17:29.723Z,1022.69
2018-05-31T05:18:29.733Z,1022.63
2018-05-31T05:19:29.744Z,1022.57
2018-05-31T05:20:29.749Z,1022.54
2018-05-31T05:21:29.753Z,1022.52
2018-05-31T05:22:29.767Z,1022.48
2018-05-31T05:23:29.776Z,1022.46
2018-05-31T05:24:29.781Z,1022.41
2018-05-31T05:25:29.795Z,1022.31
2018-05-31T05:26:29.859Z,1022.19
2018-05-31T05:27:29.815Z,1022.09
2018-05-31T05:28:29.821Z,1022.02
2018-05-31T05:29:29.838Z,1022
2018-05-31T05:30:29.847Z,1021.99
2018-05-31T05:31:29.858Z,1021.96
2018-05-31T05:32:29.894Z,1021.91
2018-05-31T05:33:29.875Z,1021.87
2018-05-31T05:34:29.890Z,1021.87
2018-05-31T05:35:29.902Z,1021.91
2018-05-31T05:36:29.923Z,1021.98
2018-05-31T05:37:29.926Z,1022.03
2018-05-31T05:38:29.931Z,1022.03
2018-05-31T05:39:29.948Z,1022.03
2018-05-31T05:40:29.955Z,1022.12
2018-05-31T05:41:29.972Z,1022.12
2018-05-31T05:42:29.979Z,1022.14
2018-05-31T05:43:30.052Z,1022.1
2018-05-31T05:44:30.004Z,1021.99
2018-05-31T05:45:30.020Z,1021.9
2018-05-31T05:46:30.032Z,1021.79
2018-05-31T05:47:30.044Z,1021.72
2018-05-31T05:48:30.054Z,1021.75
2018-05-31T05:49:30.064Z,1021.76
2018-05-31T05:50:30.082Z,1021.74
2018-05-31T05:51:30.095Z,1021.69
2018-05-31T05:52:30.113Z,1021.62
2018-05-31T05:53:30.123Z,1021.57
2018-05-31T05:54:30.139Z,1021.5
2018-05-31T05:55:30.141Z,1021.53
2018-05-31T05:56:30.171Z,1021.56
2018-05-31T05:57:30.167Z,1021.55
2018-05-31T05:58:30.191Z,1021.42
2018-05-31T05:59:30.198Z,1021.37
2018-05-31T06:00:30.214Z,1021.4
2018-05-31T06:01:30.221Z,1021.36
2018-05-31T06:02:30.241Z,1021.35
2018-05-31T06:03:30.252Z,1021.28
2018-05-31T06:04:30.271Z,1021.22
2018-05-31T06:05:30.277Z,1021.18
2018-05-31T06:06:30.296Z,1021.09
2018-05-31T06:08:30.323Z,1021.05
2018-05-31T06:09:30.333Z,1021.02
2018-05-31T06:10:30.356Z,1020.95
2018-05-31T06:11:30.360Z,1020.89
2018-05-31T06:12:30.375Z,1020.91
2018-05-31T06:13:30.389Z,1020.86
2018-05-31T06:14:30.410Z,1020.79
2018-05-31T06:15:30.436Z,1020.77
2018-05-31T06:16:30.442Z,1020.68
2018-05-31T06:17:30.449Z,1020.59
2018-05-31T06:18:30.466Z,1020.56
2018-05-31T06:19:30.490Z,1020.49
2018-05-31T06:20:30.492Z,1020.42
2018-05-31T06:21:30.513Z,1020.37
2018-05-31T06:22:30.522Z,1020.35
2018-05-31T06:23:30.547Z,1020.38
2018-05-31T06:24:30.579Z,1020.41
2018-05-31T06:25:30.577Z,1020.36
2018-05-31T06:26:30.764Z,1020.3
2018-05-31T06:27:30.604Z,1020.28
2018-05-31T06:28:30.618Z,1020.28
2018-05-31T06:29:30.630Z,1020.29
2018-05-31T06:30:30.652Z,1020.28
2018-05-31T06:31:30.670Z,1020.28
2018-05-31T06:32:30.682Z,1020.26
2018-05-31T06:33:30.720Z,1020.24
2018-05-31T06:34:30.709Z,1020.17
2018-05-31T06:35:30.730Z,1020.11
2018-05-31T06:36:30.740Z,1020.18
2018-05-31T06:37:30.761Z,1020.24
2018-05-31T06:38:30.783Z,1020.34
2018-05-31T06:39:30.794Z,1020.34
2018-05-31T06:40:30.807Z,1020.31
2018-05-31T06:41:30.825Z,1020.36
2018-05-31T06:42:30.837Z,1020.46
2018-05-31T06:43:30.860Z,1020.48
2018-05-31T06:44:30.873Z,1020.39
2018-05-31T06:45:30.894Z,1020.37
2018-05-31T06:46:30.908Z,1020.32
2018-05-31T06:47:30.916Z,1020.23
2018-05-31T06:48:30.945Z,1020.22
2018-05-31T06:49:30.957Z,1020.24
2018-05-31T06:50:30.970Z,1020.24
2018-05-31T06:51:30.980Z,1020.19
2018-05-31T06:52:31.002Z,1020.14
2018-05-31T06:53:31.018Z,1020.09
2018-05-31T06:54:31.030Z,1020.08
2018-05-31T06:55:31.051Z,1020.06
2018-05-31T06:56:31.060Z,1020.09
2018-05-31T06:57:31.083Z,1020.16
2018-05-31T06:58:31.092Z,1020.2
2018-05-31T06:59:31.117Z,1020.18
2018-05-31T07:00:31.131Z,1020.17
2018-05-31T07:01:31.147Z,1020.14
2018-05-31T07:02:31.161Z,1020.12
2018-05-31T07:03:31.174Z,1020.07
2018-05-31T07:04:31.196Z,1020.01
2018-05-31T07:05:31.213Z,1019.98
2018-05-31T07:06:31.230Z,1019.96
2018-05-31T07:07:31.241Z,1019.91
2018-05-31T07:08:31.266Z,1019.87
2018-05-31T07:09:31.273Z,1019.85
2018-05-31T07:10:31.297Z,1019.92
2018-05-31T07:11:31.306Z,1019.99
2018-05-31T07:12:31.328Z,1020.08
2018-05-31T07:13:31.338Z,1020.2
2018-05-31T07:14:31.360Z,1020.35
2018-05-31T07:15:31.371Z,1020.55
2018-05-31T07:16:31.390Z,1020.74
2018-05-31T07:17:31.404Z,1020.84
2018-05-31T07:18:31.426Z,1020.9
2018-05-31T07:19:31.449Z,1020.92
2018-05-31T07:20:31.456Z,1020.83
2018-05-31T07:21:31.472Z,1020.78
2018-05-31T07:22:31.490Z,1020.7
2018-05-31T07:23:31.508Z,1020.64
2018-05-31T07:24:31.520Z,1020.53
2018-05-31T07:25:31.531Z,1020.53
2018-05-31T07:26:31.568Z,1020.53
2018-05-31T07:27:31.563Z,1020.65
2018-05-31T07:28:31.584Z,1020.74
2018-05-31T07:29:31.594Z,1020.82
2018-05-31T07:30:31.615Z,1020.88
2018-05-31T07:31:31.625Z,1020.76
2018-05-31T07:32:31.640Z,1020.61
2018-05-31T07:33:31.656Z,1020.54
2018-05-31T07:34:31.678Z,1020.45
2018-05-31T07:35:31.692Z,1020.46
2018-05-31T07:36:31.705Z,1020.52
2018-05-31T07:37:31.719Z,1020.67
2018-05-31T07:38:31.734Z,1020.8
2018-05-31T07:39:31.760Z,1020.96
2018-05-31T07:40:31.768Z,1021.03
2018-05-31T07:41:31.786Z,1021.12
2018-05-31T07:42:31.797Z,1021.17
2018-05-31T07:43:31.840Z,1021.15
2018-05-31T07:44:31.832Z,1021.17
2018-05-31T07:45:31.848Z,1021.01
2018-05-31T07:46:31.865Z,1020.89
2018-05-31T07:47:31.873Z,1020.74
2018-05-31T07:48:31.905Z,1020.66
2018-05-31T07:49:31.902Z,1020.61
2018-05-31T07:50:31.923Z,1020.6
2018-05-31T07:51:31.945Z,1020.58
2018-05-31T07:52:31.950Z,1020.61
2018-05-31T07:53:31.966Z,1020.72
2018-05-31T07:54:31.984Z,1020.86
2018-05-31T07:55:32.005Z,1020.88
2018-05-31T07:56:32.009Z,1020.9
2018-05-31T07:57:32.029Z,1020.79
2018-05-31T07:58:32.045Z,1020.64
2018-05-31T07:59:32.061Z,1020.47
2018-05-31T08:00:32.070Z,1020.36
2018-05-31T08:01:32.090Z,1020.3
2018-05-31T08:02:32.104Z,1020.22
2018-05-31T08:03:32.120Z,1020.16
2018-05-31T08:04:32.153Z,1020.1
2018-05-31T08:05:32.157Z,1020.02
2018-05-31T08:06:32.178Z,1020.06
2018-05-31T08:07:32.175Z,1020.03
2018-05-31T08:08:32.195Z,1020.07
2018-05-31T08:09:32.211Z,1019.99
2018-05-31T08:10:32.220Z,1019.93
2018-05-31T08:11:32.262Z,1019.99
2018-05-31T08:12:32.251Z,1019.98
2018-05-31T08:13:32.271Z,1019.96
2018-05-31T08:14:32.281Z,1019.99
2018-05-31T08:15:32.301Z,1019.95
2018-05-31T08:16:32.312Z,1020.04
2018-05-31T08:17:32.333Z,1020.06
2018-05-31T08:18:32.354Z,1020
2018-05-31T08:19:32.379Z,1019.88
2018-05-31T08:20:32.382Z,1019.79
2018-05-31T08:21:32.394Z,1019.76
2018-05-31T08:22:32.408Z,1019.65
2018-05-31T08:23:32.420Z,1019.73
2018-05-31T08:24:32.440Z,1019.81
2018-05-31T08:25:32.456Z,1019.87
2018-05-31T08:26:32.472Z,1019.94
2018-05-31T08:27:32.481Z,1020
2018-05-31T08:28:32.502Z,1020.03
2018-05-31T08:29:32.513Z,1019.95
2018-05-31T08:30:32.532Z,1019.81
2018-05-31T08:31:32.623Z,1019.78
2018-05-31T08:32:32.566Z,1019.67
2018-05-31T08:33:32.571Z,1019.54
2018-05-31T08:34:32.592Z,1019.5
2018-05-31T08:35:32.603Z,1019.42
2018-05-31T08:36:32.623Z,1019.34
2018-05-31T08:37:32.638Z,1019.25
2018-05-31T08:38:32.661Z,1019.19
2018-05-31T08:39:32.664Z,1019.14
2018-05-31T08:40:32.684Z,1019.13
2018-05-31T08:41:32.719Z,1019.07
2018-05-31T08:42:32.720Z,1019.05
2018-05-31T08:43:32.756Z,1019.08
2018-05-31T08:44:32.751Z,1019.15
2018-05-31T08:45:32.762Z,1019.2
2018-05-31T08:46:32.781Z,1019.23
2018-05-31T08:47:32.812Z,1019.26
2018-05-31T08:48:32.809Z,1019.35
2018-05-31T08:49:32.829Z,1019.58
2018-05-31T08:50:32.848Z,1020.02
2018-05-31T08:51:32.884Z,1020.69
2018-05-31T08:52:32.900Z,1021.36
2018-05-31T08:53:32.911Z,1021.92
2018-05-31T08:54:32.898Z,1022.33
2018-05-31T08:55:32.915Z,1022.76
2018-05-31T08:56:32.929Z,1023.16
2018-05-31T08:57:32.943Z,1023.53
2018-05-31T08:58:32.958Z,1023.82
2018-05-31T08:59:32.966Z,1023.96
2018-05-31T09:00:32.983Z,1024.33
2018-05-31T09:01:33.005Z,1024.49
2018-05-31T09:02:33.007Z,1024.62
2018-05-31T09:03:33.019Z,1024.82
2018-05-31T09:04:33.027Z,1024.97
2018-05-31T09:05:33.047Z,1025.11
2018-05-31T09:06:33.067Z,1025.27
2018-05-31T09:07:33.065Z,1025.43
2018-05-31T09:08:33.099Z,1025.55
2018-05-31T09:09:33.087Z,1025.69
2018-05-31T09:10:33.105Z,1025.81
2018-05-31T09:11:33.116Z,1025.93
2018-05-31T09:12:33.131Z,1026.07
2018-05-31T09:13:33.124Z,1026.12
2018-05-31T09:14:33.338Z,1026.19
2018-05-31T09:15:33.145Z,1026.2
2018-05-31T09:16:33.155Z,1026.23
2018-05-31T09:17:33.155Z,1026.2
2018-05-31T09:18:33.181Z,1026.26
2018-05-31T09:19:33.172Z,1026.2
2018-05-31T09:20:33.187Z,1026.21
2018-05-31T09:21:33.188Z,1026.27
2018-05-31T09:22:33.201Z,1026.21
2018-05-31T09:23:33.204Z,1026.22
2018-05-31T09:24:33.211Z,1026.21
2018-05-31T09:25:33.229Z,1026.23
2018-05-31T09:26:33.233Z,1026.17
2018-05-31T09:27:33.236Z,1026.12
2018-05-31T09:28:33.279Z,1026.13
2018-05-31T09:29:33.254Z,1026.1
2018-05-31T09:30:33.262Z,1026.11
2018-05-31T09:31:33.264Z,1026.12
2018-05-31T09:32:33.274Z,1026.13
2018-05-31T09:33:33.285Z,1026.15
2018-05-31T09:34:33.294Z,1026.15
2018-05-31T09:35:33.291Z,1026.17
2018-05-31T09:36:33.332Z,1026.2
2018-05-31T09:37:33.325Z,1026.21
2018-05-31T09:38:33.317Z,1026.22
2018-05-31T09:39:33.318Z,1026.17
2018-05-31T09:40:33.324Z,1026.21
2018-05-31T09:41:33.332Z,1026.22
2018-05-31T09:42:33.346Z,1026.23
2018-05-31T09:43:33.351Z,1026.19
2018-05-31T09:44:33.360Z,1026.22
2018-05-31T09:45:33.359Z,1026.2
2018-05-31T09:46:33.374Z,1026.23
2018-05-31T09:47:33.379Z,1026.12
2018-05-31T09:48:33.397Z,1026.13
2018-05-31T09:49:33.402Z,1026.05
2018-05-31T09:50:33.402Z,1026.03
2018-05-31T09:51:33.404Z,1026.06
2018-05-31T09:52:33.405Z,1025.99
2018-05-31T09:53:33.412Z,1025.97
2018-05-31T09:54:33.422Z,1025.93
2018-05-31T09:55:33.425Z,1025.92
2018-05-31T09:56:33.432Z,1025.95
2018-05-31T09:57:33.437Z,1025.97
2018-05-31T09:58:33.450Z,1025.95
2018-05-31T09:59:33.457Z,1025.96
2018-05-31T10:00:33.458Z,1025.96
2018-05-31T10:01:33.470Z,1026.01
2018-05-31T10:02:33.471Z,1025.97
2018-05-31T10:03:33.483Z,1025.94
2018-05-31T10:04:33.484Z,1025.95
2018-05-31T10:05:33.496Z,1025.94
2018-05-31T10:06:33.501Z,1025.91
2018-05-31T10:07:33.509Z,1025.85
2018-05-31T10:08:33.512Z,1025.84
2018-05-31T10:09:33.530Z,1025.79
2018-05-31T10:10:33.524Z,1025.82
2018-05-31T10:11:33.539Z,1025.87
2018-05-31T10:12:33.743Z,1025.94
2018-05-31T10:13:33.548Z,1026.05
2018-05-31T10:14:33.549Z,1026.04
2018-05-31T10:15:33.560Z,1026.09
2018-05-31T10:16:33.570Z,1026.13
2018-05-31T10:17:33.592Z,1026.15
2018-05-31T10:18:33.576Z,1026.13
2018-05-31T10:19:33.586Z,1026.04
2018-05-31T10:20:33.597Z,1026.05
2018-05-31T10:21:33.602Z,1026.01
2018-05-31T10:22:33.606Z,1025.98
2018-05-31T10:23:33.615Z,1026
2018-05-31T10:24:33.619Z,1026.06
2018-05-31T10:25:33.625Z,1026.11
2018-05-31T10:26:33.627Z,1026.1
2018-05-31T10:27:33.663Z,1026.12
2018-05-31T10:28:33.653Z,1026.15
2018-05-31T10:29:33.652Z,1026.14
2018-05-31T10:30:33.651Z,1026.06
2018-05-31T10:31:33.663Z,1026
2018-05-31T10:32:33.664Z,1025.95
2018-05-31T10:33:33.670Z,1025.96
2018-05-31T10:34:33.678Z,1025.93
2018-05-31T10:35:33.687Z,1025.95
2018-05-31T10:36:33.701Z,1025.91
2018-05-31T10:37:33.700Z,1025.93
2018-05-31T10:38:33.701Z,1025.9
2018-05-31T10:39:33.712Z,1026
2018-05-31T10:40:33.717Z,1025.9
2018-05-31T10:41:33.728Z,1025.92
2018-05-31T10:42:33.726Z,1025.88
2018-05-31T10:43:33.736Z,1025.95
2018-05-31T10:44:33.750Z,1026
2018-05-31T10:45:33.747Z,1025.94
2018-05-31T10:46:33.803Z,1025.99
2018-05-31T10:47:33.761Z,1025.98
2018-05-31T10:48:33.765Z,1025.96
2018-05-31T10:49:33.767Z,1025.95
2018-05-31T10:50:33.773Z,1025.86
2018-05-31T10:51:33.785Z,1025.86
2018-05-31T10:52:33.786Z,1025.84
2018-05-31T10:53:33.796Z,1025.85
2018-05-31T10:54:33.797Z,1025.81
2018-05-31T10:55:33.808Z,1025.83
2018-05-31T10:56:33.815Z,1025.86
2018-05-31T10:57:33.820Z,1025.92
2018-05-31T10:58:33.825Z,1025.88
2018-05-31T10:59:33.832Z,1025.88
2018-05-31T11:00:33.837Z,1025.9
2018-05-31T11:01:33.848Z,1025.84
2018-05-31T11:02:33.846Z,1025.75
2018-05-31T11:03:33.862Z,1025.73
2018-05-31T11:04:33.862Z,1025.68
2018-05-31T11:05:33.870Z,1025.72
2018-05-31T11:06:33.877Z,1025.72
2018-05-31T11:07:33.874Z,1025.66
2018-05-31T11:08:33.906Z,1025.74
2018-05-31T11:09:33.892Z,1025.69
2018-05-31T11:10:33.891Z,1025.66
2018-05-31T11:11:33.902Z,1025.58
2018-05-31T11:12:33.904Z,1025.54
2018-05-31T11:13:33.917Z,1025.55
2018-05-31T11:14:33.916Z,1025.54
2018-05-31T11:15:33.941Z,1025.58
2018-05-31T11:16:33.934Z,1025.48
2018-05-31T11:17:33.943Z,1025.48
2018-05-31T11:18:33.941Z,1025.49
2018-05-31T11:19:33.947Z,1025.49
2018-05-31T11:20:33.961Z,1025.45
2018-05-31T11:21:33.965Z,1025.51
2018-05-31T11:22:33.971Z,1025.46
2018-05-31T11:23:33.972Z,1025.46
2018-05-31T11:24:33.987Z,1025.5
2018-05-31T11:25:33.990Z,1025.49
2018-05-31T11:26:33.997Z,1025.55
2018-05-31T11:27:33.997Z,1025.57
2018-05-31T11:28:34.009Z,1025.51
2018-05-31T11:29:34.009Z,1025.61
2018-05-31T11:30:34.237Z,1025.57
2018-05-31T11:31:34.023Z,1025.57
2018-05-31T11:32:34.041Z,1025.56
2018-05-31T11:33:34.046Z,1025.53
2018-05-31T11:34:34.045Z,1025.55
2018-05-31T11:35:34.047Z,1025.51
2018-05-31T11:36:34.059Z,1025.5
2018-05-31T11:37:34.063Z,1025.57
2018-05-31T11:38:34.069Z,1025.46
2018-05-31T11:39:34.073Z,1025.42
2018-05-31T11:40:34.120Z,1025.35
2018-05-31T11:41:34.111Z,1025.36
2018-05-31T11:42:34.094Z,1025.33
2018-05-31T11:43:34.095Z,1025.3
2018-05-31T11:44:34.106Z,1025.21
2018-05-31T11:45:34.107Z,1025.22
2018-05-31T11:46:34.119Z,1025.14
2018-05-31T11:47:34.120Z,1025.16
2018-05-31T11:48:34.134Z,1025.14
2018-05-31T11:49:34.132Z,1025.12
2018-05-31T11:50:34.144Z,1025.11
2018-05-31T11:51:34.150Z,1025.08
2018-05-31T11:52:34.155Z,1025.07
2018-05-31T11:53:34.158Z,1024.94
2018-05-31T11:54:34.163Z,1024.92
2018-05-31T11:55:34.180Z,1024.92
2018-05-31T11:56:34.182Z,1024.9
2018-05-31T11:57:34.188Z,1024.94
2018-05-31T11:58:34.189Z,1025.02
2018-05-31T11:59:34.201Z,1024.91
2018-05-31T12:00:34.262Z,1024.89
2018-05-31T12:01:34.208Z,1024.84
2018-05-31T12:02:34.221Z,1024.88
2018-05-31T12:03:34.222Z,1024.84
2018-05-31T12:04:34.228Z,1024.8
2018-05-31T12:05:34.233Z,1024.82
2018-05-31T12:06:34.246Z,1024.84
2018-05-31T12:07:34.265Z,1024.79
2018-05-31T12:08:34.256Z,1024.77
2018-05-31T12:09:34.265Z,1024.74
2018-05-31T12:10:34.268Z,1024.73
2018-05-31T12:11:34.278Z,1024.71
2018-05-31T12:12:34.291Z,1024.72
2018-05-31T12:13:34.292Z,1024.72
2018-05-31T12:14:34.297Z,1024.65
2018-05-31T12:15:34.298Z,1024.64
2018-05-31T12:16:34.309Z,1024.59
2018-05-31T12:17:34.402Z,1024.57
2018-05-31T12:18:34.323Z,1024.52
2018-05-31T12:19:34.324Z,1024.49
2018-05-31T12:20:34.330Z,1024.42
2018-05-31T12:21:34.339Z,1024.43
2018-05-31T12:22:34.350Z,1024.39
2018-05-31T12:23:34.362Z,1024.46
2018-05-31T12:24:34.358Z,1024.45
2018-05-31T12:25:34.447Z,1024.45
2018-05-31T12:26:34.382Z,1024.5
2018-05-31T12:27:34.377Z,1024.45
2018-05-31T12:28:34.397Z,1024.44
2018-05-31T12:29:34.392Z,1024.42
2018-05-31T12:30:34.403Z,1024.4
2018-05-31T12:31:34.405Z,1024.37
2018-05-31T12:32:34.417Z,1024.37
2018-05-31T12:33:34.425Z,1024.37
2018-05-31T12:34:34.430Z,1024.35
2018-05-31T12:35:34.431Z,1024.42
2018-05-31T12:36:34.438Z,1024.39
2018-05-31T12:37:34.445Z,1024.34
2018-05-31T12:38:34.456Z,1024.26
2018-05-31T12:39:34.464Z,1024.21
2018-05-31T12:40:34.467Z,1024.15
2018-05-31T12:41:34.473Z,1024.12
2018-05-31T12:42:34.479Z,1024.08